sensor_id;sensor_type;location;lat;lon;timestamp;pressure;altitude;pressure_sealevel;temperature;humidity
73338;BME280;61575;49.908;35.556;2023-04-27T00:01:52;98676.72;;;11.81;60.34
73338;BME280;61575;49.908;35.556;2023-04-27T00:04:54;98675.00;;;11.67;60.98
73338;BME280;61575;49.908;35.556;2023-04-27T00:07:58;98675.53;;;11.55;61.40
73338;BME280;61575;49.908;35.556;2023-04-27T00:11:00;98673.19;;;11.46;61.51
73338;BME280;61575;49.908;35.556;2023-04-27T00:14:02;98666.50;;;11.35;62.24
73338;BME280;61575;49.908;35.556;2023-04-27T00:17:04;98660.06;;;11.30;61.79
73338;BME280;61575;49.908;35.556;2023-04-27T00:20:06;98671.78;;;11.22;63.04
73338;BME280;61575;49.908;35.556;2023-04-27T00:23:12;98667.81;;;11.18;63.29
73338;BME280;61575;49.908;35.556;2023-04-27T00:26:14;98664.28;;;11.17;63.09
73338;BME280;61575;49.908;35.556;2023-04-27T00:29:19;98656.22;;;11.17;63.56
73338;BME280;61575;49.908;35.556;2023-04-27T00:32:20;98660.78;;;11.17;64.13
73338;BME280;61575;49.908;35.556;2023-04-27T00:35:23;98662.63;;;11.16;64.06
73338;BME280;61575;49.908;35.556;2023-04-27T00:38:26;98660.97;;;11.15;64.33
73338;BME280;61575;49.908;35.556;2023-04-27T00:41:28;98658.72;;;11.19;63.70
73338;BME280;61575;49.908;35.556;2023-04-27T00:44:29;98656.28;;;11.24;63.10
73338;BME280;61575;49.908;35.556;2023-04-27T00:47:32;98653.00;;;11.29;63.26
73338;BME280;61575;49.908;35.556;2023-04-27T00:50:36;98652.22;;;11.35;63.45
73338;BME280;61575;49.908;35.556;2023-04-27T00:53:40;98657.41;;;11.36;64.03
73338;BME280;61575;49.908;35.556;2023-04-27T00:56:42;98646.03;;;11.34;64.99
73338;BME280;61575;49.908;35.556;2023-04-27T00:59:44;98639.81;;;11.34;65.24
73338;BME280;61575;49.908;35.556;2023-04-27T01:02:48;98644.75;;;11.30;65.47
73338;BME280;61575;49.908;35.556;2023-04-27T01:05:51;98645.53;;;11.24;65.88
73338;BME280;61575;49.908;35.556;2023-04-27T01:08:53;98649.63;;;11.20;65.78
73338;BME280;61575;49.908;35.556;2023-04-27T01:11:55;98647.97;;;11.19;65.51
73338;BME280;61575;49.908;35.556;2023-04-27T01:14:59;98647.34;;;11.17;65.39
73338;BME280;61575;49.908;35.556;2023-04-27T01:18:01;98643.00;;;11.16;65.59
73338;BME280;61575;49.908;35.556;2023-04-27T01:21:03;98643.97;;;11.08;66.42
73338;BME280;61575;49.908;35.556;2023-04-27T01:24:06;98642.69;;;11.04;66.25
73338;BME280;61575;49.908;35.556;2023-04-27T01:27:11;98638.28;;;10.97;67.64
73338;BME280;61575;49.908;35.556;2023-04-27T01:30:14;98644.63;;;10.89;67.40
73338;BME280;61575;49.908;35.556;2023-04-27T01:33:16;98636.13;;;10.85;67.71
73338;BME280;61575;49.908;35.556;2023-04-27T01:36:21;98639.38;;;10.81;67.71
73338;BME280;61575;49.908;35.556;2023-04-27T01:39:23;98643.69;;;10.75;68.35
73338;BME280;61575;49.908;35.556;2023-04-27T01:42:26;98643.22;;;10.72;68.04
73338;BME280;61575;49.908;35.556;2023-04-27T01:45:27;98637.22;;;10.70;67.76
73338;BME280;61575;49.908;35.556;2023-04-27T01:48:29;98639.91;;;10.70;67.32
73338;BME280;61575;49.908;35.556;2023-04-27T01:51:31;98632.03;;;10.68;67.87
73338;BME280;61575;49.908;35.556;2023-04-27T01:54:33;98630.38;;;10.67;68.13
73338;BME280;61575;49.908;35.556;2023-04-27T01:57:35;98631.22;;;10.68;68.06
73338;BME280;61575;49.908;35.556;2023-04-27T02:00:37;98621.31;;;10.68;67.75
73338;BME280;61575;49.908;35.556;2023-04-27T02:03:39;98621.47;;;10.67;68.28
73338;BME280;61575;49.908;35.556;2023-04-27T02:06:41;98614.63;;;10.64;67.92
73338;BME280;61575;49.908;35.556;2023-04-27T02:09:43;98620.63;;;10.66;67.96
73338;BME280;61575;49.908;35.556;2023-04-27T02:12:47;98613.59;;;10.65;68.15
73338;BME280;61575;49.908;35.556;2023-04-27T02:15:49;98613.34;;;10.60;68.16
73338;BME280;61575;49.908;35.556;2023-04-27T02:18:51;98611.22;;;10.55;68.27
73338;BME280;61575;49.908;35.556;2023-04-27T02:21:55;98623.19;;;10.53;68.52
73338;BME280;61575;49.908;35.556;2023-04-27T02:24:58;98619.03;;;10.50;68.27
73338;BME280;61575;49.908;35.556;2023-04-27T02:28:00;98619.66;;;10.52;68.37
73338;BME280;61575;49.908;35.556;2023-04-27T02:31:03;98614.50;;;10.51;68.27
73338;BME280;61575;49.908;35.556;2023-04-27T02:34:05;98618.47;;;10.55;68.09
73338;BME280;61575;49.908;35.556;2023-04-27T02:37:07;98616.41;;;10.57;67.94
73338;BME280;61575;49.908;35.556;2023-04-27T02:40:10;98611.09;;;10.64;67.52
73338;BME280;61575;49.908;35.556;2023-04-27T02:43:11;98613.69;;;10.72;67.57
73338;BME280;61575;49.908;35.556;2023-04-27T02:46:13;98608.38;;;10.78;67.41
73338;BME280;61575;49.908;35.556;2023-04-27T02:49:15;98611.94;;;10.85;67.24
73338;BME280;61575;49.908;35.556;2023-04-27T02:52:17;98606.00;;;10.90;67.22
73338;BME280;61575;49.908;35.556;2023-04-27T02:55:19;98605.22;;;10.96;67.28
73338;BME280;61575;49.908;35.556;2023-04-27T02:58:22;98607.31;;;11.01;67.21
73338;BME280;61575;49.908;35.556;2023-04-27T03:01:24;98605.91;;;11.05;66.94
73338;BME280;61575;49.908;35.556;2023-04-27T03:04:26;98608.00;;;11.09;67.08
73338;BME280;61575;49.908;35.556;2023-04-27T03:07:28;98610.09;;;11.14;66.69
73338;BME280;61575;49.908;35.556;2023-04-27T03:10:32;98610.75;;;11.16;66.66
73338;BME280;61575;49.908;35.556;2023-04-27T03:13:34;98615.72;;;11.19;66.76
73338;BME280;61575;49.908;35.556;2023-04-27T03:16:42;98621.34;;;11.24;66.56
73338;BME280;61575;49.908;35.556;2023-04-27T03:19:47;98619.72;;;11.30;66.53
73338;BME280;61575;49.908;35.556;2023-04-27T03:22:49;98624.13;;;11.37;66.58
73338;BME280;61575;49.908;35.556;2023-04-27T03:25:52;98623.13;;;11.45;66.44
73338;BME280;61575;49.908;35.556;2023-04-27T03:28:54;98631.44;;;11.50;66.39
73338;BME280;61575;49.908;35.556;2023-04-27T03:31:56;98623.41;;;11.57;66.18
73338;BME280;61575;49.908;35.556;2023-04-27T03:34:58;98619.50;;;11.59;66.35
73338;BME280;61575;49.908;35.556;2023-04-27T03:38:00;98616.41;;;11.62;66.53
73338;BME280;61575;49.908;35.556;2023-04-27T03:41:03;98627.41;;;11.67;66.45
73338;BME280;61575;49.908;35.556;2023-04-27T03:44:05;98627.63;;;11.72;66.48
73338;BME280;61575;49.908;35.556;2023-04-27T03:47:08;98628.06;;;11.76;66.57
73338;BME280;61575;49.908;35.556;2023-04-27T03:50:12;98615.88;;;11.80;66.40
73338;BME280;61575;49.908;35.556;2023-04-27T03:53:14;98620.22;;;11.81;66.39
73338;BME280;61575;49.908;35.556;2023-04-27T03:56:16;98623.34;;;11.84;66.60
73338;BME280;61575;49.908;35.556;2023-04-27T03:59:19;98615.31;;;11.91;66.19
73338;BME280;61575;49.908;35.556;2023-04-27T04:02:23;98620.94;;;11.96;66.33
73338;BME280;61575;49.908;35.556;2023-04-27T04:05:25;98612.88;;;12.03;66.26
73338;BME280;61575;49.908;35.556;2023-04-27T04:08:28;98613.97;;;12.08;66.20
73338;BME280;61575;49.908;35.556;2023-04-27T04:11:31;98611.72;;;12.18;65.93
73338;BME280;61575;49.908;35.556;2023-04-27T04:14:35;98615.66;;;12.23;65.95
73338;BME280;61575;49.908;35.556;2023-04-27T04:17:37;98615.94;;;12.47;65.60
73338;BME280;61575;49.908;35.556;2023-04-27T04:20:39;98611.00;;;12.64;64.80
73338;BME280;61575;49.908;35.556;2023-04-27T04:23:41;98624.47;;;12.64;64.69
73338;BME280;61575;49.908;35.556;2023-04-27T04:26:43;98620.75;;;12.78;64.70
73338;BME280;61575;49.908;35.556;2023-04-27T04:29:45;98619.50;;;12.88;64.64
73338;BME280;61575;49.908;35.556;2023-04-27T04:32:47;98613.09;;;12.89;64.55
73338;BME280;61575;49.908;35.556;2023-04-27T04:35:49;98617.25;;;13.04;64.22
73338;BME280;61575;49.908;35.556;2023-04-27T04:38:52;98612.88;;;13.16;64.48
73338;BME280;61575;49.908;35.556;2023-04-27T04:41:56;98614.97;;;13.34;64.00
73338;BME280;61575;49.908;35.556;2023-04-27T04:45:01;98613.50;;;13.45;63.82
73338;BME280;61575;49.908;35.556;2023-04-27T04:48:04;98614.28;;;13.59;63.70
73338;BME280;61575;49.908;35.556;2023-04-27T04:51:06;98613.63;;;13.76;63.40
73338;BME280;61575;49.908;35.556;2023-04-27T04:54:09;98612.78;;;13.76;63.28
73338;BME280;61575;49.908;35.556;2023-04-27T04:57:12;98606.13;;;13.85;63.09
73338;BME280;61575;49.908;35.556;2023-04-27T05:00:14;98612.72;;;13.96;62.87
73338;BME280;61575;49.908;35.556;2023-04-27T05:03:16;98606.03;;;14.05;63.55
73338;BME280;61575;49.908;35.556;2023-04-27T05:06:18;98609.25;;;14.27;63.66
73338;BME280;61575;49.908;35.556;2023-04-27T05:09:20;98606.06;;;14.43;62.81
73338;BME280;61575;49.908;35.556;2023-04-27T05:12:22;98607.19;;;14.60;62.72
73338;BME280;61575;49.908;35.556;2023-04-27T05:15:24;98602.75;;;14.72;62.11
73338;BME280;61575;49.908;35.556;2023-04-27T05:18:26;98597.91;;;14.81;62.07
73338;BME280;61575;49.908;35.556;2023-04-27T05:21:28;98585.72;;;14.97;61.84
73338;BME280;61575;49.908;35.556;2023-04-27T05:24:29;98585.91;;;15.20;61.37
73338;BME280;61575;49.908;35.556;2023-04-27T05:27:31;98591.91;;;15.47;60.50
73338;BME280;61575;49.908;35.556;2023-04-27T05:30:34;98587.25;;;15.54;60.18
73338;BME280;61575;49.908;35.556;2023-04-27T05:33:36;98585.09;;;15.63;60.10
73338;BME280;61575;49.908;35.556;2023-04-27T05:36:38;98583.00;;;15.65;60.56
73338;BME280;61575;49.908;35.556;2023-04-27T05:39:40;98580.81;;;15.73;60.69
73338;BME280;61575;49.908;35.556;2023-04-27T05:42:45;98577.22;;;15.80;60.41
73338;BME280;61575;49.908;35.556;2023-04-27T05:45:47;98577.66;;;15.77;60.58
73338;BME280;61575;49.908;35.556;2023-04-27T05:48:49;98573.38;;;15.69;60.75
73338;BME280;61575;49.908;35.556;2023-04-27T05:51:51;98567.19;;;15.80;60.92
73338;BME280;61575;49.908;35.556;2023-04-27T05:54:54;98562.38;;;16.00;60.46
73338;BME280;61575;49.908;35.556;2023-04-27T05:57:56;98552.03;;;16.39;59.81
73338;BME280;61575;49.908;35.556;2023-04-27T06:01:08;98551.59;;;16.84;59.00
73338;BME280;61575;49.908;35.556;2023-04-27T06:04:10;98553.38;;;17.13;57.85
73338;BME280;61575;49.908;35.556;2023-04-27T06:07:14;98545.13;;;17.55;57.40
73338;BME280;61575;49.908;35.556;2023-04-27T06:10:16;98538.31;;;17.92;56.62
73338;BME280;61575;49.908;35.556;2023-04-27T06:13:19;98543.38;;;17.89;55.79
73338;BME280;61575;49.908;35.556;2023-04-27T06:16:21;98552.63;;;17.76;54.77
73338;BME280;61575;49.908;35.556;2023-04-27T06:19:24;98548.63;;;17.79;55.18
73338;BME280;61575;49.908;35.556;2023-04-27T06:22:27;98553.81;;;17.80;55.16
73338;BME280;61575;49.908;35.556;2023-04-27T06:25:29;98549.41;;;17.91;54.94
73338;BME280;61575;49.908;35.556;2023-04-27T06:28:31;98551.09;;;17.80;55.58
73338;BME280;61575;49.908;35.556;2023-04-27T06:31:33;98545.31;;;17.77;55.33
73338;BME280;61575;49.908;35.556;2023-04-27T06:34:35;98542.13;;;17.68;55.56
73338;BME280;61575;49.908;35.556;2023-04-27T06:37:37;98549.22;;;17.69;55.04
73338;BME280;61575;49.908;35.556;2023-04-27T06:40:39;98550.50;;;17.78;55.02
73338;BME280;61575;49.908;35.556;2023-04-27T06:43:41;98549.19;;;17.81;54.80
73338;BME280;61575;49.908;35.556;2023-04-27T06:46:43;98555.81;;;17.85;54.20
73338;BME280;61575;49.908;35.556;2023-04-27T06:49:45;98551.41;;;17.95;55.05
73338;BME280;61575;49.908;35.556;2023-04-27T06:52:50;98548.63;;;18.07;54.03
73338;BME280;61575;49.908;35.556;2023-04-27T06:55:52;98555.47;;;18.10;53.93
73338;BME280;61575;49.908;35.556;2023-04-27T06:58:53;98556.78;;;18.07;53.69
73338;BME280;61575;49.908;35.556;2023-04-27T07:01:55;98561.63;;;18.05;53.98
73338;BME280;61575;49.908;35.556;2023-04-27T07:04:57;98564.13;;;18.07;54.04
73338;BME280;61575;49.908;35.556;2023-04-27T07:07:59;98573.69;;;18.09;53.86
73338;BME280;61575;49.908;35.556;2023-04-27T07:11:07;98572.94;;;18.14;53.80
73338;BME280;61575;49.908;35.556;2023-04-27T07:14:09;98568.44;;;18.19;53.69
73338;BME280;61575;49.908;35.556;2023-04-27T07:17:11;98572.16;;;18.42;52.94
73338;BME280;61575;49.908;35.556;2023-04-27T07:20:13;98574.50;;;18.50;52.69
73338;BME280;61575;49.908;35.556;2023-04-27T07:23:15;98579.72;;;18.68;52.73
73338;BME280;61575;49.908;35.556;2023-04-27T07:26:18;98579.94;;;18.50;52.28
73338;BME280;61575;49.908;35.556;2023-04-27T07:29:19;98574.41;;;18.45;52.50
73338;BME280;61575;49.908;35.556;2023-04-27T07:32:27;98572.84;;;18.49;52.47
73338;BME280;61575;49.908;35.556;2023-04-27T07:35:30;98577.34;;;18.43;52.33
73338;BME280;61575;49.908;35.556;2023-04-27T07:38:32;98567.06;;;18.45;52.58
73338;BME280;61575;49.908;35.556;2023-04-27T07:41:34;98573.00;;;18.42;52.44
73338;BME280;61575;49.908;35.556;2023-04-27T07:44:36;98565.19;;;18.34;52.62
73338;BME280;61575;49.908;35.556;2023-04-27T07:47:38;98564.84;;;18.30;52.48
73338;BME280;61575;49.908;35.556;2023-04-27T07:50:40;98563.88;;;18.37;52.93
73338;BME280;61575;49.908;35.556;2023-04-27T07:53:42;98560.91;;;18.38;52.88
73338;BME280;61575;49.908;35.556;2023-04-27T07:56:46;98559.19;;;18.32;52.86
73338;BME280;61575;49.908;35.556;2023-04-27T07:59:47;98553.84;;;18.37;52.72
73338;BME280;61575;49.908;35.556;2023-04-27T08:02:52;98553.25;;;18.35;52.27
73338;BME280;61575;49.908;35.556;2023-04-27T08:05:54;98549.03;;;18.27;52.54
73338;BME280;61575;49.908;35.556;2023-04-27T08:08:57;98546.78;;;18.24;52.64
73338;BME280;61575;49.908;35.556;2023-04-27T08:12:01;98543.75;;;18.21;53.04
73338;BME280;61575;49.908;35.556;2023-04-27T08:15:07;98544.81;;;18.20;53.38
73338;BME280;61575;49.908;35.556;2023-04-27T08:18:09;98538.88;;;18.23;52.85
73338;BME280;61575;49.908;35.556;2023-04-27T08:21:11;98547.63;;;18.25;53.11
73338;BME280;61575;49.908;35.556;2023-04-27T08:24:12;98555.19;;;18.23;53.82
73338;BME280;61575;49.908;35.556;2023-04-27T08:27:15;98553.53;;;18.22;53.35
73338;BME280;61575;49.908;35.556;2023-04-27T08:30:16;98564.81;;;18.14;53.40
73338;BME280;61575;49.908;35.556;2023-04-27T08:33:18;98562.22;;;18.07;53.87
73338;BME280;61575;49.908;35.556;2023-04-27T08:36:21;98568.38;;;18.03;54.46
73338;BME280;61575;49.908;35.556;2023-04-27T08:39:26;98572.66;;;17.98;54.80
73338;BME280;61575;49.908;35.556;2023-04-27T08:42:28;98560.03;;;17.92;54.96
73338;BME280;61575;49.908;35.556;2023-04-27T08:45:31;98538.19;;;17.87;55.35
73338;BME280;61575;49.908;35.556;2023-04-27T08:48:33;98542.47;;;17.83;55.86
73338;BME280;61575;49.908;35.556;2023-04-27T08:51:35;98529.47;;;17.85;58.03
73338;BME280;61575;49.908;35.556;2023-04-27T08:54:37;98520.00;;;17.88;60.21
73338;BME280;61575;49.908;35.556;2023-04-27T08:57:39;98500.38;;;17.97;59.68
73338;BME280;61575;49.908;35.556;2023-04-27T09:00:42;98507.25;;;18.17;59.81
73338;BME280;61575;49.908;35.556;2023-04-27T09:03:45;98499.28;;;18.27;58.73
73338;BME280;61575;49.908;35.556;2023-04-27T09:06:47;98494.91;;;18.54;58.50
73338;BME280;61575;49.908;35.556;2023-04-27T09:10:01;98498.78;;;18.75;58.57
73338;BME280;61575;49.908;35.556;2023-04-27T09:13:03;98499.34;;;18.94;56.39
73338;BME280;61575;49.908;35.556;2023-04-27T09:16:05;98496.09;;;19.14;56.00
73338;BME280;61575;49.908;35.556;2023-04-27T09:19:07;98492.50;;;19.47;54.76
73338;BME280;61575;49.908;35.556;2023-04-27T09:22:10;98485.88;;;19.86;53.33
73338;BME280;61575;49.908;35.556;2023-04-27T09:25:41;98472.56;;;20.12;52.53
73338;BME280;61575;49.908;35.556;2023-04-27T09:28:47;98474.19;;;20.13;51.94
73338;BME280;61575;49.908;35.556;2023-04-27T09:31:49;98467.56;;;20.31;52.46
73338;BME280;61575;49.908;35.556;2023-04-27T09:34:51;98458.59;;;20.67;51.79
73338;BME280;61575;49.908;35.556;2023-04-27T09:37:53;98457.56;;;21.10;50.68
73338;BME280;61575;49.908;35.556;2023-04-27T09:40:56;98451.41;;;21.35;49.32
73338;BME280;61575;49.908;35.556;2023-04-27T09:43:58;98449.88;;;21.60;48.93
73338;BME280;61575;49.908;35.556;2023-04-27T09:47:02;98447.81;;;21.82;48.84
73338;BME280;61575;49.908;35.556;2023-04-27T09:50:04;98449.78;;;22.07;48.67
73338;BME280;61575;49.908;35.556;2023-04-27T09:53:10;98444.59;;;22.05;46.44
73338;BME280;61575;49.908;35.556;2023-04-27T09:56:23;98440.78;;;22.27;46.66
73338;BME280;61575;49.908;35.556;2023-04-27T10:10:02;98422.50;;;22.68;45.31
73338;BME280;61575;49.908;35.556;2023-04-27T10:13:05;98423.31;;;22.58;46.23
73338;BME280;61575;49.908;35.556;2023-04-27T10:16:14;98407.72;;;22.69;44.58
73338;BME280;61575;49.908;35.556;2023-04-27T10:19:17;98415.31;;;22.97;45.49
73338;BME280;61575;49.908;35.556;2023-04-27T10:22:21;98409.03;;;22.97;45.54
73338;BME280;61575;49.908;35.556;2023-04-27T10:35:38;98393.41;;;23.72;43.37
73338;BME280;61575;49.908;35.556;2023-04-27T10:38:40;98389.25;;;23.80;41.97
73338;BME280;61575;49.908;35.556;2023-04-27T10:41:51;98396.88;;;23.38;41.36
73338;BME280;61575;49.908;35.556;2023-04-27T10:44:55;98375.75;;;23.44;41.90
73338;BME280;61575;49.908;35.556;2023-04-27T10:48:00;98384.47;;;23.51;42.22
73338;BME280;61575;49.908;35.556;2023-04-27T10:51:02;98387.72;;;23.58;41.81
73338;BME280;61575;49.908;35.556;2023-04-27T10:54:04;98381.69;;;23.61;41.77
73338;BME280;61575;49.908;35.556;2023-04-27T10:57:08;98382.19;;;23.68;41.35
73338;BME280;61575;49.908;35.556;2023-04-27T11:00:11;98380.03;;;23.60;42.02
73338;BME280;61575;49.908;35.556;2023-04-27T11:03:18;98372.00;;;23.25;42.09
73338;BME280;61575;49.908;35.556;2023-04-27T11:06:21;98366.34;;;22.80;41.52
73338;BME280;61575;49.908;35.556;2023-04-27T11:09:26;98369.13;;;22.65;41.02
73338;BME280;61575;49.908;35.556;2023-04-27T11:12:30;98368.03;;;22.36;41.04
73338;BME280;61575;49.908;35.556;2023-04-27T11:15:44;98371.84;;;22.09;41.61
73338;BME280;61575;49.908;35.556;2023-04-27T11:18:47;98368.19;;;21.58;40.92
73338;BME280;61575;49.908;35.556;2023-04-27T11:21:49;98354.66;;;21.16;40.41
73338;BME280;61575;49.908;35.556;2023-04-27T11:24:52;98350.69;;;20.92;41.03
73338;BME280;61575;49.908;35.556;2023-04-27T11:27:54;98357.13;;;20.70;42.82
73338;BME280;61575;49.908;35.556;2023-04-27T11:30:59;98356.44;;;20.48;43.53
73338;BME280;61575;49.908;35.556;2023-04-27T11:34:01;98357.41;;;20.32;44.66
73338;BME280;61575;49.908;35.556;2023-04-27T11:37:05;98355.47;;;20.27;44.06
73338;BME280;61575;49.908;35.556;2023-04-27T11:40:19;98345.16;;;20.34;44.02
73338;BME280;61575;49.908;35.556;2023-04-27T11:43:25;98343.97;;;20.57;44.86
73338;BME280;61575;49.908;35.556;2023-04-27T11:46:27;98333.34;;;20.61;45.78
73338;BME280;61575;49.908;35.556;2023-04-27T11:49:29;98345.28;;;20.49;46.10
73338;BME280;61575;49.908;35.556;2023-04-27T11:52:33;98346.88;;;20.45;46.57
73338;BME280;61575;49.908;35.556;2023-04-27T11:55:35;98347.63;;;20.36;45.92
73338;BME280;61575;49.908;35.556;2023-04-27T11:58:38;98351.38;;;20.24;46.21
73338;BME280;61575;49.908;35.556;2023-04-27T12:01:40;98351.44;;;20.03;46.80
73338;BME280;61575;49.908;35.556;2023-04-27T12:04:42;98351.34;;;19.92;47.02
73338;BME280;61575;49.908;35.556;2023-04-27T12:07:44;98351.53;;;19.86;47.42
73338;BME280;61575;49.908;35.556;2023-04-27T12:10:46;98343.03;;;19.77;47.78
73338;BME280;61575;49.908;35.556;2023-04-27T12:13:49;98348.16;;;19.69;47.30
73338;BME280;61575;49.908;35.556;2023-04-27T12:16:51;98357.66;;;19.66;48.29
73338;BME280;61575;49.908;35.556;2023-04-27T12:19:53;98358.94;;;19.58;48.50
73338;BME280;61575;49.908;35.556;2023-04-27T12:22:58;98358.13;;;19.58;48.89
73338;BME280;61575;49.908;35.556;2023-04-27T12:26:00;98350.91;;;19.47;49.59
73338;BME280;61575;49.908;35.556;2023-04-27T12:29:02;98359.06;;;19.25;50.50
73338;BME280;61575;49.908;35.556;2023-04-27T12:32:05;98360.97;;;19.24;50.22
73338;BME280;61575;49.908;35.556;2023-04-27T12:35:07;98358.13;;;19.14;50.80
73338;BME280;61575;49.908;35.556;2023-04-27T12:38:10;98357.06;;;19.15;51.32
73338;BME280;61575;49.908;35.556;2023-04-27T12:41:11;98354.97;;;19.01;51.78
73338;BME280;61575;49.908;35.556;2023-04-27T12:44:15;98363.81;;;18.91;52.13
73338;BME280;61575;49.908;35.556;2023-04-27T12:47:20;98382.22;;;18.84;52.62
73338;BME280;61575;49.908;35.556;2023-04-27T12:50:42;98363.69;;;18.81;53.21
73338;BME280;61575;49.908;35.556;2023-04-27T12:53:44;98388.00;;;18.71;55.53
73338;BME280;61575;49.908;35.556;2023-04-27T12:56:46;98391.09;;;18.57;56.46
73338;BME280;61575;49.908;35.556;2023-04-27T12:59:48;98382.00;;;18.35;59.77
73338;BME280;61575;49.908;35.556;2023-04-27T13:02:50;98349.81;;;18.10;61.11
73338;BME280;61575;49.908;35.556;2023-04-27T13:05:52;98357.06;;;18.05;61.41
73338;BME280;61575;49.908;35.556;2023-04-27T13:08:54;98364.69;;;17.91;62.66
73338;BME280;61575;49.908;35.556;2023-04-27T13:11:57;98352.59;;;17.82;63.38
73338;BME280;61575;49.908;35.556;2023-04-27T13:15:02;98358.09;;;17.87;63.22
73338;BME280;61575;49.908;35.556;2023-04-27T13:18:04;98362.56;;;17.93;63.18
73338;BME280;61575;49.908;35.556;2023-04-27T13:21:07;98357.22;;;17.98;63.14
73338;BME280;61575;49.908;35.556;2023-04-27T13:24:09;98360.25;;;18.02;63.30
73338;BME280;61575;49.908;35.556;2023-04-27T13:27:11;98353.50;;;18.04;62.85
73338;BME280;61575;49.908;35.556;2023-04-27T13:30:13;98354.66;;;18.08;62.56
73338;BME280;61575;49.908;35.556;2023-04-27T13:33:15;98353.69;;;18.14;62.41
73338;BME280;61575;49.908;35.556;2023-04-27T13:36:24;98349.97;;;18.20;62.64
73338;BME280;61575;49.908;35.556;2023-04-27T13:39:26;98353.66;;;18.31;62.61
73338;BME280;61575;49.908;35.556;2023-04-27T13:42:28;98347.25;;;18.37;62.73
73338;BME280;61575;49.908;35.556;2023-04-27T13:45:30;98346.84;;;18.45;62.63
73338;BME280;61575;49.908;35.556;2023-04-27T13:48:33;98347.25;;;18.54;62.53
73338;BME280;61575;49.908;35.556;2023-04-27T13:51:34;98341.63;;;18.60;62.21
73338;BME280;61575;49.908;35.556;2023-04-27T13:54:37;98333.44;;;18.77;63.17
73338;BME280;61575;49.908;35.556;2023-04-27T13:57:39;98339.91;;;18.93;62.41
73338;BME280;61575;49.908;35.556;2023-04-27T14:00:41;98352.13;;;18.90;62.19
73338;BME280;61575;49.908;35.556;2023-04-27T14:03:43;98346.53;;;18.80;64.14
73338;BME280;61575;49.908;35.556;2023-04-27T14:06:45;98333.47;;;18.60;67.05
73338;BME280;61575;49.908;35.556;2023-04-27T14:09:47;98335.88;;;18.40;69.76
73338;BME280;61575;49.908;35.556;2023-04-27T14:12:49;98350.72;;;18.32;70.57
73338;BME280;61575;49.908;35.556;2023-04-27T14:15:51;98350.22;;;18.19;72.25
73338;BME280;61575;49.908;35.556;2023-04-27T14:18:53;98348.25;;;17.97;75.66
73338;BME280;61575;49.908;35.556;2023-04-27T14:21:56;98347.34;;;17.92;75.49
73338;BME280;61575;49.908;35.556;2023-04-27T14:24:59;98345.69;;;17.91;75.46
73338;BME280;61575;49.908;35.556;2023-04-27T14:28:04;98327.81;;;17.95;71.20
73338;BME280;61575;49.908;35.556;2023-04-27T14:31:06;98330.72;;;18.05;69.06
73338;BME280;61575;49.908;35.556;2023-04-27T14:34:08;98321.72;;;18.05;69.42
73338;BME280;61575;49.908;35.556;2023-04-27T14:37:10;98335.22;;;17.99;69.09
73338;BME280;61575;49.908;35.556;2023-04-27T14:40:12;98329.38;;;17.91;68.83
73338;BME280;61575;49.908;35.556;2023-04-27T14:43:14;98343.22;;;17.89;68.57
73338;BME280;61575;49.908;35.556;2023-04-27T14:46:17;98331.94;;;17.81;69.93
73338;BME280;61575;49.908;35.556;2023-04-27T14:49:22;98337.38;;;17.81;71.21
73338;BME280;61575;49.908;35.556;2023-04-27T14:52:24;98329.94;;;17.76;72.60
73338;BME280;61575;49.908;35.556;2023-04-27T14:55:26;98325.59;;;17.75;72.64
73338;BME280;61575;49.908;35.556;2023-04-27T14:58:28;98321.38;;;17.67;72.56
73338;BME280;61575;49.908;35.556;2023-04-27T15:01:32;98329.78;;;17.66;70.73
73338;BME280;61575;49.908;35.556;2023-04-27T15:04:34;98323.28;;;17.67;69.00
73338;BME280;61575;49.908;35.556;2023-04-27T15:07:36;98337.59;;;17.62;70.51
73338;BME280;61575;49.908;35.556;2023-04-27T15:10:38;98341.28;;;17.56;71.38
73338;BME280;61575;49.908;35.556;2023-04-27T15:13:40;98341.28;;;17.45;70.08
73338;BME280;61575;49.908;35.556;2023-04-27T15:16:42;98344.00;;;17.45;70.33
73338;BME280;61575;49.908;35.556;2023-04-27T15:19:44;98339.06;;;17.42;70.51
73338;BME280;61575;49.908;35.556;2023-04-27T15:22:46;98344.75;;;17.40;70.99
73338;BME280;61575;49.908;35.556;2023-04-27T15:25:48;98348.75;;;17.38;71.16
73338;BME280;61575;49.908;35.556;2023-04-27T15:28:51;98349.25;;;17.34;70.36
73338;BME280;61575;49.908;35.556;2023-04-27T15:31:53;98352.19;;;17.33;69.85
73338;BME280;61575;49.908;35.556;2023-04-27T15:34:56;98349.50;;;17.33;69.41
73338;BME280;61575;49.908;35.556;2023-04-27T15:37:58;98360.59;;;17.31;69.62
73338;BME280;61575;49.908;35.556;2023-04-27T15:41:00;98349.38;;;17.28;69.57
73338;BME280;61575;49.908;35.556;2023-04-27T15:44:03;98352.25;;;17.21;69.95
73338;BME280;61575;49.908;35.556;2023-04-27T15:47:05;98354.84;;;17.16;70.65
73338;BME280;61575;49.908;35.556;2023-04-27T15:50:08;98359.00;;;17.07;71.42
73338;BME280;61575;49.908;35.556;2023-04-27T15:53:10;98352.91;;;17.00;71.56
73338;BME280;61575;49.908;35.556;2023-04-27T15:56:11;98355.50;;;16.95;72.24
73338;BME280;61575;49.908;35.556;2023-04-27T15:59:13;98347.50;;;16.88;72.97
73338;BME280;61575;49.908;35.556;2023-04-27T16:02:16;98350.81;;;16.79;73.29
73338;BME280;61575;49.908;35.556;2023-04-27T16:05:18;98359.31;;;16.70;73.26
73338;BME280;61575;49.908;35.556;2023-04-27T16:08:21;98352.13;;;16.64;72.67
73338;BME280;61575;49.908;35.556;2023-04-27T16:11:23;98361.78;;;16.60;72.62
73338;BME280;61575;49.908;35.556;2023-04-27T16:14:25;98372.06;;;16.58;71.98
73338;BME280;61575;49.908;35.556;2023-04-27T16:17:29;98375.19;;;16.55;71.24